createdAt,value
2023-09-13T00:02:23.685Z,97858.34
2023-09-13T00:04:50.794Z,97849.03
2023-09-13T00:07:19.688Z,97848.38
2023-09-13T00:09:47.017Z,97844.81
2023-09-13T00:12:14.420Z,97843.41
2023-09-13T00:14:41.310Z,97838.59
2023-09-13T00:17:08.224Z,97838.88
2023-09-13T00:19:35.559Z,97832.06
2023-09-13T00:22:03.322Z,97836.06
2023-09-13T00:24:30.349Z,97839.69
2023-09-13T00:26:57.242Z,97836.19
2023-09-13T00:29:24.152Z,97842.94
2023-09-13T00:31:51.246Z,97841.44
2023-09-13T00:34:18.839Z,97832.38
2023-09-13T00:36:45.815Z,97840.41
2023-09-13T00:39:13.638Z,97834.66
2023-09-13T00:41:40.622Z,97831.06
2023-09-13T00:44:07.528Z,97836.09
2023-09-13T00:46:35.003Z,97833.72
2023-09-13T00:49:02.765Z,97833.72
2023-09-13T00:51:30.159Z,97834.50
2023-09-13T00:53:57.904Z,97830.63
2023-09-13T00:56:24.991Z,97831.50
2023-09-13T00:58:52.896Z,97831.63
2023-09-13T01:01:20.269Z,97836.34
2023-09-13T01:03:48.131Z,97833.44
2023-09-13T01:06:15.498Z,97841.78
2023-09-13T01:08:44.018Z,97836.47
2023-09-13T01:11:12.278Z,97828.00
2023-09-13T01:13:39.396Z,97834.38
2023-09-13T01:16:18.433Z,97834.56
2023-09-13T01:19:00.334Z,97835.78
2023-09-13T01:21:39.824Z,97821.78
2023-09-13T01:24:25.174Z,97822.56
2023-09-13T01:27:10.669Z,97821.13
2023-09-13T01:29:37.912Z,97821.78
2023-09-13T01:32:05.136Z,97819.56
2023-09-13T01:34:32.625Z,97827.84
2023-09-13T01:36:59.885Z,97828.44
2023-09-13T01:39:27.404Z,97830.53
2023-09-13T01:41:58.273Z,97829.47
2023-09-13T01:44:25.278Z,97830.44
2023-09-13T01:46:53.115Z,97824.66
2023-09-13T01:49:22.063Z,97831.41
2023-09-13T01:51:50.156Z,97822.34
2023-09-13T01:54:20.270Z,97826.13
2023-09-13T01:56:47.182Z,97826.78
2023-09-13T01:59:14.205Z,97819.06
2023-09-13T02:01:41.459Z,97823.13
2023-09-13T02:04:08.686Z,97825.88
2023-09-13T02:06:35.643Z,97831.03
2023-09-13T02:09:02.546Z,97828.16
2023-09-13T02:11:29.473Z,97826.13
2023-09-13T02:13:56.371Z,97822.22
2023-09-13T02:16:23.348Z,97817.88
2023-09-13T02:18:50.565Z,97825.28
2023-09-13T02:21:17.817Z,97819.50
2023-09-13T02:23:44.864Z,97818.12
2023-09-13T02:26:30.132Z,97813.47
2023-09-13T02:28:57.651Z,97814.66
2023-09-13T02:31:25.395Z,97809.47
2023-09-13T02:33:52.566Z,97819.13
2023-09-13T02:36:19.589Z,97815.03
2023-09-13T02:38:46.546Z,97816.28
2023-09-13T02:41:13.515Z,97809.72
2023-09-13T02:43:43.804Z,97819.03
2023-09-13T02:46:11.030Z,97812.38
2023-09-13T02:48:38.263Z,97808.19
2023-09-13T02:51:05.177Z,97808.75
2023-09-13T02:53:32.446Z,97808.22
2023-09-13T02:56:06.796Z,97809.56
2023-09-13T02:58:33.944Z,97813.87
2023-09-13T03:01:05.137Z,97813.44
2023-09-13T03:03:33.149Z,97808.09
2023-09-13T03:06:07.709Z,97803.94
2023-09-13T03:08:34.740Z,97807.31
2023-09-13T03:11:12.609Z,97808.16
2023-09-13T03:13:39.601Z,97809.56
2023-09-13T03:16:19.588Z,97808.84
2023-09-13T03:18:48.080Z,97808.91
2023-09-13T03:21:15.329Z,97818.41
2023-09-13T03:23:44.029Z,97818.16
2023-09-13T03:26:22.793Z,97821.75
2023-09-13T03:28:51.529Z,97819.94
2023-09-13T03:31:20.225Z,97818.78
2023-09-13T03:33:49.381Z,97819.03
2023-09-13T03:36:17.338Z,97821.03
2023-09-13T03:38:45.193Z,97811.72
2023-09-13T03:41:13.510Z,97825.41
2023-09-13T03:43:40.466Z,97815.88
2023-09-13T03:46:08.318Z,97818.59
2023-09-13T03:48:37.263Z,97820.28
2023-09-13T03:51:05.072Z,97823.25
2023-09-13T03:53:32.315Z,97817.34
2023-09-13T03:56:00.057Z,97818.25
2023-09-13T03:58:27.319Z,97819.28
2023-09-13T04:00:55.009Z,97821.09
2023-09-13T04:03:22.472Z,97824.69
2023-09-13T04:05:49.671Z,97821.00
2023-09-13T04:08:16.681Z,97821.09
2023-09-13T04:10:43.602Z,97821.44
2023-09-13T04:13:10.618Z,97830.78
2023-09-13T04:15:37.648Z,97832.16
2023-09-13T04:18:06.345Z,97831.13
2023-09-13T04:20:36.234Z,97835.38
2023-09-13T04:23:03.639Z,97831.00
2023-09-13T04:25:30.680Z,97832.78
2023-09-13T04:27:57.617Z,97832.78
2023-09-13T04:30:24.650Z,97830.81
2023-09-13T04:32:51.595Z,97834.28
2023-09-13T04:35:18.620Z,97829.66
2023-09-13T04:37:45.547Z,97837.75
2023-09-13T04:40:13.594Z,97841.63
2023-09-13T04:42:43.990Z,97841.22
2023-09-13T04:45:11.181Z,97839.25
2023-09-13T04:47:40.139Z,97851.19
2023-09-13T04:50:09.963Z,97853.31
2023-09-13T04:52:38.295Z,97849.00
2023-09-13T04:55:06.820Z,97854.22
2023-09-13T04:57:34.298Z,97845.56
2023-09-13T05:00:01.262Z,97847.97
2023-09-13T05:02:28.425Z,97854.81
2023-09-13T05:04:55.465Z,97853.94
2023-09-13T05:07:22.450Z,97846.78
2023-09-13T05:09:49.433Z,97850.13
2023-09-13T05:12:16.404Z,97846.81
2023-09-13T05:14:43.778Z,97853.94
2023-09-13T05:17:11.664Z,97860.56
2023-09-13T05:19:38.653Z,97859.34
2023-09-13T05:22:05.687Z,97854.47
2023-09-13T05:24:32.666Z,97859.63
2023-09-13T05:26:59.574Z,97850.44
2023-09-13T05:29:26.481Z,97850.00
2023-09-13T05:31:55.416Z,97860.59
2023-09-13T05:34:23.879Z,97862.41
2023-09-13T05:36:50.848Z,97857.28
2023-09-13T05:39:17.763Z,97848.94
2023-09-13T05:41:44.763Z,97851.03
2023-09-13T05:44:11.720Z,97852.44
2023-09-13T05:46:38.784Z,97855.62
2023-09-13T05:49:06.498Z,97851.03
2023-09-13T05:51:33.492Z,97858.81
2023-09-13T05:54:00.463Z,97865.94
2023-09-13T05:56:28.110Z,97862.53
2023-09-13T05:58:55.171Z,97863.88
2023-09-13T06:01:24.122Z,97858.53
2023-09-13T06:03:51.250Z,97857.75
2023-09-13T06:06:18.216Z,97858.13
2023-09-13T06:08:45.291Z,97855.12
2023-09-13T06:11:12.225Z,97848.31
2023-09-13T06:13:39.197Z,97853.81
2023-09-13T06:16:06.232Z,97857.63
2023-09-13T06:18:33.168Z,97856.34
2023-09-13T06:21:00.635Z,97855.81
2023-09-13T06:23:41.134Z,97859.00
2023-09-13T06:26:09.854Z,97862.28
2023-09-13T06:28:36.985Z,97860.94
2023-09-13T06:31:05.203Z,97855.91
2023-09-13T06:33:42.228Z,97866.09
2023-09-13T06:36:10.154Z,97867.00
2023-09-13T06:38:37.733Z,97871.12
2023-09-13T06:41:04.986Z,97857.44
2023-09-13T06:43:58.037Z,97861.16
2023-09-13T06:46:20.489Z,97867.13
2023-09-13T06:48:47.912Z,97881.09
2023-09-13T06:53:45.542Z,97872.25
2023-09-13T06:56:17.498Z,97870.38
2023-09-13T06:58:47.657Z,97883.09
2023-09-13T07:01:34.958Z,97879.00
2023-09-13T07:04:06.504Z,97883.75
2023-09-13T07:06:35.925Z,97886.72
2023-09-13T07:09:04.197Z,97892.38
2023-09-13T07:11:31.096Z,97896.28
2023-09-13T07:13:59.665Z,97889.50
2023-09-13T07:16:27.664Z,97895.31
2023-09-13T07:18:56.875Z,97888.59
2023-09-13T07:21:23.770Z,97880.44
2023-09-13T07:23:50.762Z,97879.22
2023-09-13T07:26:17.707Z,97873.50
2023-09-13T07:28:44.925Z,97877.25
2023-09-13T07:31:12.628Z,97877.75
2023-09-13T07:33:39.831Z,97881.22
2023-09-13T07:36:06.809Z,97891.06
2023-09-13T07:38:33.862Z,97882.50
2023-09-13T07:41:00.937Z,97893.41
2023-09-13T07:43:28.791Z,97896.38
2023-09-13T07:45:55.720Z,97899.78
2023-09-13T07:48:24.117Z,97894.00
2023-09-13T07:50:51.064Z,97902.75
2023-09-13T07:53:17.989Z,97895.69
2023-09-13T07:55:44.968Z,97894.69
2023-09-13T07:58:12.001Z,97900.06
2023-09-13T08:00:39.018Z,97900.88
2023-09-13T08:03:06.425Z,97904.22
2023-09-13T08:05:33.474Z,97911.91
2023-09-13T08:08:00.778Z,97914.66
2023-09-13T08:10:27.783Z,97925.59
2023-09-13T08:12:55.061Z,97921.56
2023-09-13T08:15:30.713Z,97929.34
2023-09-13T08:18:08.965Z,97922.75
2023-09-13T08:20:36.817Z,97928.56
2023-09-13T08:23:03.865Z,97929.47
2023-09-13T08:25:30.891Z,97929.72
2023-09-13T08:27:57.852Z,97917.84
2023-09-13T08:30:24.828Z,97925.66
2023-09-13T08:32:51.894Z,97934.91
2023-09-13T08:35:18.826Z,97929.59
2023-09-13T08:37:45.808Z,97927.53
2023-09-13T08:40:13.120Z,97927.00
2023-09-13T08:42:42.057Z,97933.19
2023-09-13T08:45:09.470Z,97931.00
2023-09-13T08:47:51.222Z,97937.31
2023-09-13T08:50:27.599Z,97934.03
2023-09-13T08:52:54.872Z,97938.28
2023-09-13T08:55:22.243Z,97933.53
2023-09-13T08:57:49.513Z,97931.88
2023-09-13T09:00:17.102Z,97929.84
2023-09-13T09:02:44.634Z,97925.75
2023-09-13T09:05:13.930Z,97928.78
2023-09-13T09:07:42.523Z,97941.63
2023-09-13T09:10:12.959Z,97938.38
2023-09-13T09:12:43.374Z,97940.12
2023-09-13T09:15:12.131Z,97931.38
2023-09-13T09:17:39.698Z,97929.03
2023-09-13T09:20:07.497Z,97925.72
2023-09-13T09:22:34.545Z,97931.44
2023-09-13T09:25:01.802Z,97926.13
2023-09-13T09:27:28.697Z,97924.00
2023-09-13T09:30:04.509Z,97924.50
2023-09-13T09:32:31.896Z,97927.87
2023-09-13T09:35:01.715Z,97926.44
2023-09-13T09:37:33.341Z,97919.87
2023-09-13T09:40:00.808Z,97917.63
2023-09-13T09:42:27.871Z,97926.44
2023-09-13T09:44:56.404Z,97921.19
2023-09-13T09:47:23.483Z,97930.88
2023-09-13T09:49:53.388Z,97927.34
2023-09-13T09:52:20.472Z,97925.94
2023-09-13T09:54:48.876Z,97931.25
2023-09-13T09:57:27.337Z,97919.38
2023-09-13T09:59:54.457Z,97929.84
2023-09-13T10:02:28.838Z,97928.41
2023-09-13T10:04:56.254Z,97927.37
2023-09-13T10:07:23.259Z,97925.72
2023-09-13T10:09:50.208Z,97935.59
2023-09-13T10:12:17.217Z,97936.41
2023-09-13T10:14:45.995Z,97937.84
2023-09-13T10:17:13.496Z,97932.94
2023-09-13T10:19:42.998Z,97929.56
2023-09-13T10:22:14.487Z,97931.59
2023-09-13T10:24:48.700Z,97927.84
2023-09-13T10:27:18.368Z,97926.94
2023-09-13T10:29:55.217Z,97921.41
2023-09-13T10:32:24.392Z,97927.41
2023-09-13T10:34:56.229Z,97922.03
2023-09-13T10:37:42.802Z,97921.19
2023-09-13T10:40:52.268Z,97921.41
2023-09-13T10:43:19.553Z,97918.94
2023-09-13T10:45:46.639Z,97914.81
2023-09-13T10:48:13.839Z,97920.91
2023-09-13T10:50:40.772Z,97917.50
2023-09-13T10:53:08.193Z,97917.31
2023-09-13T10:55:35.398Z,97914.00
2023-09-13T10:58:04.519Z,97909.47
2023-09-13T11:00:35.198Z,97912.53
2023-09-13T11:03:04.516Z,97916.66
2023-09-13T11:05:33.369Z,97916.25
2023-09-13T11:08:00.423Z,97905.84
2023-09-13T11:10:31.721Z,97894.50
2023-09-13T11:13:12.334Z,97906.53
2023-09-13T11:15:50.314Z,97919.66
2023-09-13T11:18:17.994Z,97915.19
2023-09-13T11:20:45.003Z,97908.59
2023-09-13T11:23:33.374Z,97900.59
2023-09-13T11:26:12.018Z,97895.56
2023-09-13T11:28:42.716Z,97892.16
2023-09-13T11:31:11.346Z,97895.97
2023-09-13T11:33:52.999Z,97903.09
2023-09-13T11:36:21.823Z,97905.53
2023-09-13T11:38:53.559Z,97901.56
2023-09-13T11:41:20.993Z,97898.78
2023-09-13T11:44:03.366Z,97896.66
2023-09-13T11:46:31.913Z,97901.97
2023-09-13T11:49:03.020Z,97893.91
2023-09-13T11:51:50.687Z,97896.53
2023-09-13T11:54:21.361Z,97899.03
2023-09-13T11:56:52.197Z,97894.59
2023-09-13T11:59:31.969Z,97899.84
2023-09-13T12:01:59.573Z,97901.75
2023-09-13T12:07:03.039Z,97902.78
2023-09-13T12:09:32.009Z,97904.31
2023-09-13T12:12:06.872Z,97909.09
2023-09-13T12:14:57.001Z,97901.34
2023-09-13T12:17:37.944Z,97907.75
2023-09-13T12:20:09.195Z,97896.41
2023-09-13T12:22:43.060Z,97889.25
2023-09-13T12:25:14.766Z,97887.69
2023-09-13T12:27:42.237Z,97887.44
2023-09-13T12:30:16.197Z,97878.97
2023-09-13T12:32:45.341Z,97881.63
2023-09-13T12:35:13.338Z,97881.91
2023-09-13T12:37:40.259Z,97878.19
2023-09-13T12:40:16.431Z,97870.28
2023-09-13T12:42:43.728Z,97868.84
2023-09-13T12:45:11.366Z,97880.56
2023-09-13T12:47:38.729Z,97870.28
2023-09-13T12:50:18.261Z,97872.34
2023-09-13T12:52:45.782Z,97867.59
2023-09-13T12:55:14.831Z,97873.50
2023-09-13T12:57:41.769Z,97871.66
2023-09-13T13:00:13.379Z,97868.94
2023-09-13T13:02:40.599Z,97873.44
2023-09-13T13:05:08.005Z,97868.47
2023-09-13T13:07:52.893Z,97866.47
2023-09-13T13:10:27.216Z,97869.22
2023-09-13T13:12:56.964Z,97870.97
2023-09-13T13:15:31.768Z,97869.69
2023-09-13T13:17:58.921Z,97868.59
2023-09-13T13:20:27.850Z,97868.38
2023-09-13T13:22:55.328Z,97860.25
2023-09-13T13:25:23.161Z,97858.47
2023-09-13T13:27:50.629Z,97860.59
2023-09-13T13:30:17.807Z,97856.41
2023-09-13T13:32:44.879Z,97858.19
2023-09-13T13:35:12.059Z,97863.56
2023-09-13T13:37:45.800Z,97855.41
2023-09-13T13:40:13.101Z,97848.28
2023-09-13T13:42:40.040Z,97848.88
2023-09-13T13:45:07.511Z,97846.72
2023-09-13T13:47:34.426Z,97843.19
2023-09-13T13:50:02.300Z,97832.97
2023-09-13T13:52:29.375Z,97833.31
2023-09-13T13:54:56.436Z,97850.59
2023-09-13T13:57:23.815Z,97833.38
2023-09-13T13:59:51.035Z,97840.16
2023-09-13T14:02:19.228Z,97847.28
2023-09-13T14:04:48.441Z,97839.50
2023-09-13T14:07:15.372Z,97844.06
2023-09-13T14:09:42.410Z,97840.53
2023-09-13T14:12:09.549Z,97839.09
2023-09-13T14:14:36.566Z,97833.97
2023-09-13T14:17:05.329Z,97828.03
2023-09-13T14:19:34.348Z,97821.84
2023-09-13T14:22:02.478Z,97824.75
2023-09-13T14:24:29.615Z,97823.47
2023-09-13T14:26:56.900Z,97818.81
2023-09-13T14:29:23.910Z,97818.75
2023-09-13T14:31:51.594Z,97822.28
2023-09-13T14:34:20.149Z,97814.88
2023-09-13T14:36:47.444Z,97815.50
2023-09-13T14:39:14.480Z,97804.84
2023-09-13T14:41:42.405Z,97806.47
2023-09-13T14:44:09.412Z,97804.03
2023-09-13T14:46:36.520Z,97816.94
2023-09-13T14:49:04.248Z,97809.53
2023-09-13T15:50:03.839Z,97818.19
2023-09-13T15:52:30.914Z,97820.44
2023-09-13T15:54:58.077Z,97820.22
2023-09-13T15:57:25.431Z,97809.56
2023-09-13T15:59:52.431Z,97809.62
2023-09-13T16:02:19.425Z,97809.69
2023-09-13T16:04:46.409Z,97806.41
2023-09-13T16:07:14.708Z,97808.94
2023-09-13T16:09:41.752Z,97800.09
2023-09-13T16:12:09.014Z,97804.59
2023-09-13T16:14:36.947Z,97806.94
2023-09-13T16:17:05.234Z,97802.66
2023-09-13T16:19:33.974Z,97798.69
2023-09-13T16:22:00.933Z,97799.44
2023-09-13T16:24:27.915Z,97800.09
2023-09-13T16:26:55.208Z,97805.87
2023-09-13T16:29:22.131Z,97819.63
2023-09-13T16:31:49.887Z,97808.03
2023-09-13T16:34:17.560Z,97805.56
2023-09-13T16:36:44.682Z,97799.97
2023-09-13T16:39:13.870Z,97802.12
2023-09-13T16:41:40.837Z,97801.03
2023-09-13T16:44:07.926Z,97803.72
2023-09-13T16:46:34.840Z,97798.41
2023-09-13T16:49:02.078Z,97794.88
2023-09-13T16:51:29.647Z,97799.59
2023-09-13T16:53:57.211Z,97805.06
2023-09-13T16:56:24.651Z,97809.56
2023-09-13T16:58:51.642Z,97814.88
2023-09-13T17:01:18.921Z,97809.56
2023-09-13T17:03:46.918Z,97801.16
2023-09-13T17:06:15.012Z,97804.06
2023-09-13T17:08:42.773Z,97802.94
2023-09-13T17:11:13.247Z,97797.25
2023-09-13T17:13:40.641Z,97797.50
2023-09-13T17:16:07.633Z,97789.03
2023-09-13T17:18:35.221Z,97802.38
2023-09-13T17:21:02.444Z,97812.59
2023-09-13T17:23:30.576Z,97811.00
2023-09-13T17:25:58.333Z,97811.16
2023-09-13T17:28:25.370Z,97810.53
2023-09-13T17:30:54.019Z,97820.25
2023-09-13T17:33:21.173Z,97819.84
2023-09-13T17:35:49.255Z,97821.53
2023-09-13T17:38:18.428Z,97820.34
2023-09-13T17:40:48.090Z,97821.13
2023-09-13T17:43:15.436Z,97820.16
2023-09-13T17:45:43.027Z,97828.06
2023-09-13T17:48:10.230Z,97825.31
2023-09-13T17:50:37.178Z,97829.19
2023-09-13T17:53:05.500Z,97833.25
2023-09-13T17:55:32.720Z,97834.81
2023-09-13T17:58:01.435Z,97840.75
2023-09-13T18:00:31.659Z,97839.78
2023-09-13T18:02:58.731Z,97838.19
2023-09-13T18:05:25.746Z,97836.87
2023-09-13T18:07:58.079Z,97832.53
2023-09-13T18:10:25.627Z,97825.41
2023-09-13T18:12:52.654Z,97831.34
2023-09-13T18:15:19.713Z,97827.00
2023-09-13T18:17:54.373Z,97836.44
2023-09-13T18:20:23.590Z,97845.81
2023-09-13T18:22:50.702Z,97835.81
2023-09-13T18:25:17.834Z,97841.91
2023-09-13T18:27:45.013Z,97837.56
2023-09-13T18:30:12.851Z,97836.19
2023-09-13T18:32:39.900Z,97833.94
2023-09-13T18:35:07.413Z,97834.16
2023-09-13T18:37:35.976Z,97833.69
2023-09-13T18:40:04.574Z,97839.50
2023-09-13T18:42:35.215Z,97856.97
2023-09-13T18:45:04.399Z,97852.69
2023-09-13T18:47:31.375Z,97851.19
2023-09-13T18:50:00.938Z,97841.84
2023-09-13T18:52:30.825Z,97847.16
2023-09-13T18:54:57.792Z,97846.94
2023-09-13T18:57:24.783Z,97843.81
2023-09-13T18:59:51.756Z,97854.53
2023-09-13T19:02:18.711Z,97853.78
2023-09-13T19:04:45.644Z,97855.34
2023-09-13T19:07:15.390Z,97853.53
2023-09-13T19:09:42.583Z,97849.22
2023-09-13T19:12:09.546Z,97848.41
2023-09-13T19:14:38.976Z,97848.75
2023-09-13T19:17:05.888Z,97843.69
2023-09-13T19:19:35.692Z,97842.06
2023-09-13T19:22:03.159Z,97832.12
2023-09-13T19:24:36.160Z,97829.22
2023-09-13T19:27:13.517Z,97823.59
2023-09-13T19:29:40.650Z,97829.50
2023-09-13T19:32:07.576Z,97812.28
2023-09-13T19:34:34.540Z,97818.72
2023-09-13T19:37:01.768Z,97821.66
2023-09-13T19:39:28.826Z,97823.63
2023-09-13T19:41:55.958Z,97813.72
2023-09-13T19:44:22.875Z,97815.72
2023-09-13T19:46:50.385Z,97809.91
2023-09-13T19:49:17.406Z,97811.56
2023-09-13T19:51:44.400Z,97815.66
2023-09-13T19:54:11.386Z,97813.56
2023-09-13T19:56:38.341Z,97826.94
2023-09-13T19:59:05.389Z,97836.78
2023-09-13T20:01:32.349Z,97841.97
2023-09-13T20:03:59.422Z,97856.00
2023-09-13T20:06:29.223Z,97853.34
2023-09-13T20:08:56.115Z,97860.44
2023-09-13T20:11:24.053Z,97858.91
2023-09-13T20:13:50.937Z,97862.38
2023-09-13T20:16:17.930Z,97868.28
2023-09-13T20:18:46.027Z,97865.09
2023-09-13T20:21:13.438Z,97875.56
2023-09-13T20:23:41.594Z,97873.09
2023-09-13T20:26:08.644Z,97870.06
2023-09-13T20:28:35.934Z,97877.75
2023-09-13T20:31:03.011Z,97884.22
2023-09-13T20:33:32.018Z,97881.06
2023-09-13T20:36:01.236Z,97893.28
2023-09-13T20:38:28.725Z,97897.03
2023-09-13T20:40:55.637Z,97903.47
2023-09-13T20:43:22.575Z,97913.09
2023-09-13T20:45:50.455Z,97906.31
2023-09-13T20:48:17.578Z,97920.34
2023-09-13T20:50:44.612Z,97920.78
2023-09-13T20:53:11.606Z,97919.22
2023-09-13T20:55:38.565Z,97924.22
2023-09-13T20:58:05.560Z,97926.44
2023-09-13T21:00:33.146Z,97918.72
2023-09-13T21:03:00.760Z,97922.41
2023-09-13T21:05:27.702Z,97924.56
2023-09-13T21:07:55.815Z,97922.09
2023-09-13T21:10:22.744Z,97932.56
2023-09-13T21:12:49.787Z,97914.09
2023-09-13T21:15:16.762Z,97920.94
2023-09-13T21:17:43.853Z,97932.66
2023-09-13T21:20:10.993Z,97944.16
2023-09-13T21:22:38.049Z,97939.81
2023-09-13T21:25:05.451Z,97948.53
2023-09-13T21:27:32.846Z,97950.25
2023-09-13T21:29:59.800Z,97952.19
2023-09-13T21:32:26.857Z,97953.84
2023-09-13T21:35:02.504Z,97956.00
2023-09-13T21:37:34.255Z,97960.41
2023-09-13T21:40:03.219Z,97961.69
2023-09-13T21:42:30.444Z,97968.25
2023-09-13T21:44:57.580Z,97960.59
2023-09-13T21:47:25.926Z,97964.19
2023-09-13T21:49:53.192Z,97972.87
2023-09-13T21:52:21.324Z,97972.38
2023-09-13T21:54:49.771Z,97966.34
2023-09-13T21:57:22.765Z,97970.94
2023-09-13T21:59:49.814Z,97954.16
2023-09-13T22:02:16.778Z,97970.25
2023-09-13T22:04:43.853Z,97960.56
2023-09-13T22:07:11.106Z,97966.91
2023-09-13T22:09:38.196Z,97972.47
2023-09-13T22:12:06.195Z,97980.44
2023-09-13T22:14:33.475Z,97975.09
2023-09-13T22:17:00.533Z,97976.56
2023-09-13T22:19:27.534Z,97985.97
2023-09-13T22:21:56.090Z,97992.44
2023-09-13T22:24:25.932Z,97999.09
2023-09-13T22:26:53.360Z,97992.59
2023-09-13T22:29:20.419Z,98008.41
2023-09-13T22:31:48.283Z,98005.56
2023-09-13T22:34:15.362Z,97998.38
2023-09-13T22:36:42.528Z,98006.75
2023-09-13T22:39:09.898Z,98005.53
2023-09-13T22:41:38.768Z,97997.84
2023-09-13T22:44:06.660Z,97983.63
2023-09-13T22:46:33.812Z,97984.38
2023-09-13T22:49:01.077Z,97978.78
2023-09-13T22:51:28.190Z,97974.50
2023-09-13T22:53:57.318Z,97975.84
2023-09-13T22:56:24.606Z,97972.78
2023-09-13T22:58:51.654Z,97951.84
2023-09-13T23:01:18.656Z,97962.28
2023-09-13T23:03:47.015Z,97962.50
2023-09-13T23:06:15.000Z,97951.19
2023-09-13T23:08:42.194Z,97950.31
2023-09-13T23:11:09.122Z,97946.91
2023-09-13T23:13:36.131Z,97947.19
2023-09-13T23:16:06.541Z,97942.03
2023-09-13T23:18:34.911Z,97955.72
2023-09-13T23:21:02.753Z,97948.75
2023-09-13T23:23:29.991Z,97950.06
2023-09-13T23:26:07.678Z,97952.34
2023-09-13T23:28:35.530Z,97953.44
2023-09-13T23:31:04.137Z,97958.16
2023-09-13T23:33:31.296Z,97952.81
2023-09-13T23:35:58.287Z,97951.63
2023-09-13T23:38:25.638Z,97949.34
2023-09-13T23:40:52.600Z,97948.78
2023-09-13T23:43:19.929Z,97942.53
2023-09-13T23:45:47.635Z,97936.78
2023-09-13T23:48:15.020Z,97943.66
2023-09-13T23:50:41.977Z,97946.91
2023-09-13T23:53:09.935Z,97953.50
2023-09-13T23:55:36.921Z,97945.75
2023-09-13T23:58:04.895Z,97953.06
